sensor_id;sensor_type;location;lat;lon;timestamp;pressure;altitude;pressure_sealevel;temperature;humidity
59487;BME280;45298;54.918;73.504;2023-01-01T00:01:24;101129.81;;;-18.81;78.50
59487;BME280;45298;54.918;73.504;2023-01-01T00:03:55;101097.38;;;-18.99;78.53
59487;BME280;45298;54.918;73.504;2023-01-01T00:06:25;101121.75;;;-18.88;78.21
59487;BME280;45298;54.918;73.504;2023-01-01T00:08:54;101158.31;;;-18.60;78.59
59487;BME280;45298;54.918;73.504;2023-01-01T00:11:41;101149.06;;;-18.72;78.26
59487;BME280;45298;54.918;73.504;2023-01-01T00:14:10;101153.69;;;-18.66;78.59
59487;BME280;45298;54.918;73.504;2023-01-01T00:16:39;101132.78;;;-18.75;78.41
59487;BME280;45298;54.918;73.504;2023-01-01T00:19:09;101166.25;;;-18.56;78.91
59487;BME280;45298;54.918;73.504;2023-01-01T00:21:38;101174.06;;;-18.52;78.15
59487;BME280;45298;54.918;73.504;2023-01-01T00:24:07;101114.38;;;-18.85;78.29
59487;BME280;45298;54.918;73.504;2023-01-01T00:26:36;101129.38;;;-18.76;78.29
59487;BME280;45298;54.918;73.504;2023-01-01T00:29:05;101187.16;;;-18.58;78.08
59487;BME280;45298;54.918;73.504;2023-01-01T00:31:34;101167.81;;;-18.58;78.56
59487;BME280;45298;54.918;73.504;2023-01-01T00:34:03;101159.53;;;-18.67;78.51
59487;BME280;45298;54.918;73.504;2023-01-01T00:36:31;101148.84;;;-18.75;78.48
59487;BME280;45298;54.918;73.504;2023-01-01T00:39:02;101195.09;;;-18.53;78.50
59487;BME280;45298;54.918;73.504;2023-01-01T00:41:30;101125.63;;;-18.93;78.10
59487;BME280;45298;54.918;73.504;2023-01-01T00:43:59;101181.00;;;-18.62;78.75
59487;BME280;45298;54.918;73.504;2023-01-01T00:46:28;101052.44;;;-19.37;78.69
59487;BME280;45298;54.918;73.504;2023-01-01T00:48:57;101152.56;;;-18.81;78.36
59487;BME280;45298;54.918;73.504;2023-01-01T00:51:26;101160.38;;;-18.78;78.39
59487;BME280;45298;54.918;73.504;2023-01-01T00:54:03;101159.63;;;-18.77;78.14
59487;BME280;45298;54.918;73.504;2023-01-01T00:56:32;101194.19;;;-18.66;78.35
59487;BME280;45298;54.918;73.504;2023-01-01T00:59:02;101190.03;;;-18.65;78.66
59487;BME280;45298;54.918;73.504;2023-01-01T01:01:33;101055.50;;;-19.41;78.40
59487;BME280;45298;54.918;73.504;2023-01-01T01:04:03;101168.63;;;-18.81;78.67
59487;BME280;45298;54.918;73.504;2023-01-01T01:06:32;101155.41;;;-18.89;78.33
59487;BME280;45298;54.918;73.504;2023-01-01T01:09:01;101170.38;;;-18.80;78.45
59487;BME280;45298;54.918;73.504;2023-01-01T01:11:32;101172.56;;;-18.85;78.39
59487;BME280;45298;54.918;73.504;2023-01-01T01:14:01;101172.34;;;-18.88;78.35
59487;BME280;45298;54.918;73.504;2023-01-01T01:16:32;101185.22;;;-18.85;78.46
59487;BME280;45298;54.918;73.504;2023-01-01T01:19:03;101227.59;;;-18.70;78.60
59487;BME280;45298;54.918;73.504;2023-01-01T01:21:33;101085.25;;;-19.49;78.53
59487;BME280;45298;54.918;73.504;2023-01-01T01:24:03;101192.16;;;-18.94;78.34
59487;BME280;45298;54.918;73.504;2023-01-01T01:26:32;101162.84;;;-19.14;78.18
59487;BME280;45298;54.918;73.504;2023-01-01T01:29:03;101181.13;;;-19.06;78.23
59487;BME280;45298;54.918;73.504;2023-01-01T01:31:33;101179.78;;;-19.13;78.15
59487;BME280;45298;54.918;73.504;2023-01-01T01:34:02;101199.53;;;-18.97;78.23
59487;BME280;45298;54.918;73.504;2023-01-01T01:36:32;101190.59;;;-19.04;78.39
59487;BME280;45298;54.918;73.504;2023-01-01T01:39:02;101194.09;;;-19.02;78.26
59487;BME280;45298;54.918;73.504;2023-01-01T01:41:31;101186.50;;;-19.02;78.26
59487;BME280;45298;54.918;73.504;2023-01-01T01:44:03;101178.94;;;-19.02;78.14
59487;BME280;45298;54.918;73.504;2023-01-01T01:46:40;101201.16;;;-18.86;78.03
59487;BME280;45298;54.918;73.504;2023-01-01T01:49:16;101197.00;;;-18.85;77.94
59487;BME280;45298;54.918;73.504;2023-01-01T01:51:49;101074.09;;;-19.63;77.91
59487;BME280;45298;54.918;73.504;2023-01-01T01:54:22;101223.16;;;-18.85;78.06
59487;BME280;45298;54.918;73.504;2023-01-01T01:56:59;101185.19;;;-19.08;78.01
59487;BME280;45298;54.918;73.504;2023-01-01T01:59:33;101232.63;;;-18.82;78.02
59487;BME280;45298;54.918;73.504;2023-01-01T02:02:05;101223.16;;;-18.85;77.87
59487;BME280;45298;54.918;73.504;2023-01-01T02:04:37;101208.28;;;-18.92;78.06
59487;BME280;45298;54.918;73.504;2023-01-01T02:07:06;101187.72;;;-19.08;77.41
59487;BME280;45298;54.918;73.504;2023-01-01T02:09:36;101214.13;;;-19.05;77.89
59487;BME280;45298;54.918;73.504;2023-01-01T02:12:05;101234.81;;;-18.87;77.68
59487;BME280;45298;54.918;73.504;2023-01-01T02:14:34;101186.94;;;-19.07;77.72
59487;BME280;45298;54.918;73.504;2023-01-01T02:17:08;101236.06;;;-18.81;77.66
59487;BME280;45298;54.918;73.504;2023-01-01T02:20:03;101240.69;;;-18.76;77.67
59487;BME280;45298;54.918;73.504;2023-01-01T02:25:10;101239.06;;;-18.75;77.70
59487;BME280;45298;54.918;73.504;2023-01-01T02:30:30;101178.72;;;-19.05;77.29
59487;BME280;45298;54.918;73.504;2023-01-01T02:33:03;101199.53;;;-18.97;77.47
59487;BME280;45298;54.918;73.504;2023-01-01T02:36:02;101222.41;;;-18.83;77.81
59487;BME280;45298;54.918;73.504;2023-01-01T02:38:31;101243.47;;;-18.73;77.39
59487;BME280;45298;54.918;73.504;2023-01-01T02:41:05;101160.41;;;-19.24;77.33
59487;BME280;45298;54.918;73.504;2023-01-01T02:43:36;101206.56;;;-18.93;77.58
59487;BME280;45298;54.918;73.504;2023-01-01T02:46:07;101198.19;;;-19.04;77.00
59487;BME280;45298;54.918;73.504;2023-01-01T02:48:51;101237.69;;;-18.94;77.53
59487;BME280;45298;54.918;73.504;2023-01-01T02:57:03;101255.41;;;-18.82;76.79
59487;BME280;45298;54.918;73.504;2023-01-01T03:03:16;101248.00;;;-18.91;77.45
59487;BME280;45298;54.918;73.504;2023-01-01T03:06:14;101245.19;;;-18.83;77.16
59487;BME280;45298;54.918;73.504;2023-01-01T03:09:26;101245.66;;;-18.77;77.59
59487;BME280;45298;54.918;73.504;2023-01-01T03:14:46;101213.19;;;-18.95;77.37
59487;BME280;45298;54.918;73.504;2023-01-01T03:17:34;101248.41;;;-18.74;77.41
59487;BME280;45298;54.918;73.504;2023-01-01T03:20:09;101187.72;;;-19.08;77.20
59487;BME280;45298;54.918;73.504;2023-01-01T03:22:41;101250.72;;;-18.77;77.56
59487;BME280;45298;54.918;73.504;2023-01-01T03:25:16;101256.78;;;-18.75;77.36
59487;BME280;45298;54.918;73.504;2023-01-01T03:28:02;101249.81;;;-18.78;77.45
59487;BME280;45298;54.918;73.504;2023-01-01T03:30:35;101238.50;;;-18.83;77.26
59487;BME280;45298;54.918;73.504;2023-01-01T03:33:12;101232.81;;;-18.91;76.91
59487;BME280;45298;54.918;73.504;2023-01-01T03:35:51;101214.22;;;-19.03;77.59
59487;BME280;45298;54.918;73.504;2023-01-01T03:38:30;101216.06;;;-19.12;77.29
59487;BME280;45298;54.918;73.504;2023-01-01T03:41:05;101246.59;;;-18.99;76.85
59487;BME280;45298;54.918;73.504;2023-01-01T03:46:21;101227.94;;;-19.11;76.98
59487;BME280;45298;54.918;73.504;2023-01-01T03:48:52;101148.34;;;-19.61;76.96
59487;BME280;45298;54.918;73.504;2023-01-01T03:51:55;101278.72;;;-18.86;77.06
59487;BME280;45298;54.918;73.504;2023-01-01T03:54:35;101240.94;;;-19.07;76.75
59487;BME280;45298;54.918;73.504;2023-01-01T03:57:32;101273.78;;;-18.85;77.02
59487;BME280;45298;54.918;73.504;2023-01-01T04:00:10;101270.06;;;-18.78;76.48
59487;BME280;45298;54.918;73.504;2023-01-01T04:05:22;101239.44;;;-18.93;76.87
59487;BME280;45298;54.918;73.504;2023-01-01T04:07:52;101281.31;;;-18.74;76.88
59487;BME280;45298;54.918;73.504;2023-01-01T04:10:23;101263.78;;;-18.83;77.13
59487;BME280;45298;54.918;73.504;2023-01-01T04:12:55;101198.44;;;-19.23;76.68
59487;BME280;45298;54.918;73.504;2023-01-01T04:15:27;101295.94;;;-18.70;76.71
59487;BME280;45298;54.918;73.504;2023-01-01T04:17:59;101235.22;;;-19.04;76.87
59487;BME280;45298;54.918;73.504;2023-01-01T04:20:28;101282.94;;;-18.75;77.26
59487;BME280;45298;54.918;73.504;2023-01-01T04:22:58;101279.97;;;-18.69;76.71
59487;BME280;45298;54.918;73.504;2023-01-01T04:25:28;101233.03;;;-19.00;76.89
59487;BME280;45298;54.918;73.504;2023-01-01T04:28:00;101292.19;;;-18.75;76.92
59487;BME280;45298;54.918;73.504;2023-01-01T04:30:32;101255.94;;;-18.98;76.67
59487;BME280;45298;54.918;73.504;2023-01-01T04:32:59;101299.31;;;-18.81;76.63
59487;BME280;45298;54.918;73.504;2023-01-01T04:35:28;101287.94;;;-18.87;77.08
59487;BME280;45298;54.918;73.504;2023-01-01T04:37:57;101295.25;;;-18.79;76.65
59487;BME280;45298;54.918;73.504;2023-01-01T04:40:28;101246.88;;;-19.06;76.57
59487;BME280;45298;54.918;73.504;2023-01-01T04:42:56;101261.88;;;-18.97;76.61
59487;BME280;45298;54.918;73.504;2023-01-01T04:45:25;101308.78;;;-18.79;76.50
59487;BME280;45298;54.918;73.504;2023-01-01T04:47:54;101278.34;;;-18.91;76.73
59487;BME280;45298;54.918;73.504;2023-01-01T04:50:23;101270.88;;;-19.01;76.68
59487;BME280;45298;54.918;73.504;2023-01-01T04:52:52;101262.81;;;-19.07;76.50
59487;BME280;45298;54.918;73.504;2023-01-01T04:55:21;101247.94;;;-19.14;76.65
59487;BME280;45298;54.918;73.504;2023-01-01T04:57:50;101254.00;;;-19.12;76.61
59487;BME280;45298;54.918;73.504;2023-01-01T05:00:19;101238.22;;;-19.20;76.69
59487;BME280;45298;54.918;73.504;2023-01-01T05:02:50;101278.47;;;-19.01;76.47
59487;BME280;45298;54.918;73.504;2023-01-01T05:05:19;101287.81;;;-19.00;76.55
59487;BME280;45298;54.918;73.504;2023-01-01T05:07:49;101275.69;;;-19.04;76.49
59487;BME280;45298;54.918;73.504;2023-01-01T05:10:18;101296.66;;;-18.95;76.32
59487;BME280;45298;54.918;73.504;2023-01-01T05:12:47;101191.59;;;-19.68;76.12
59487;BME280;45298;54.918;73.504;2023-01-01T05:15:16;101275.00;;;-19.13;76.00
59487;BME280;45298;54.918;73.504;2023-01-01T05:17:45;101292.63;;;-19.03;76.19
59487;BME280;45298;54.918;73.504;2023-01-01T05:20:14;101307.69;;;-19.05;76.27
59487;BME280;45298;54.918;73.504;2023-01-01T05:22:44;101270.50;;;-19.28;75.92
59487;BME280;45298;54.918;73.504;2023-01-01T05:25:14;101281.34;;;-19.19;76.07
59487;BME280;45298;54.918;73.504;2023-01-01T05:27:43;101270.03;;;-19.34;75.98
59487;BME280;45298;54.918;73.504;2023-01-01T05:30:14;101304.34;;;-19.16;75.69
59487;BME280;45298;54.918;73.504;2023-01-01T05:32:43;101275.69;;;-19.26;75.74
59487;BME280;45298;54.918;73.504;2023-01-01T05:35:12;101313.97;;;-19.00;75.79
59487;BME280;45298;54.918;73.504;2023-01-01T05:37:41;101305.03;;;-19.06;76.07
59487;BME280;45298;54.918;73.504;2023-01-01T05:40:10;101321.94;;;-18.95;75.66
59487;BME280;45298;54.918;73.504;2023-01-01T05:42:39;101305.38;;;-19.02;75.78
59487;BME280;45298;54.918;73.504;2023-01-01T05:45:08;101277.41;;;-19.15;76.01
59487;BME280;45298;54.918;73.504;2023-01-01T05:47:37;101313.00;;;-18.90;75.61
59487;BME280;45298;54.918;73.504;2023-01-01T05:50:07;101282.03;;;-19.09;75.36
59487;BME280;45298;54.918;73.504;2023-01-01T05:52:34;101280.50;;;-19.07;75.45
59487;BME280;45298;54.918;73.504;2023-01-01T05:55:03;101271.91;;;-19.09;75.08
59487;BME280;45298;54.918;73.504;2023-01-01T05:57:32;101311.97;;;-18.81;75.78
59487;BME280;45298;54.918;73.504;2023-01-01T06:00:01;101301.72;;;-18.95;75.50
59487;BME280;45298;54.918;73.504;2023-01-01T06:02:32;101131.75;;;-19.92;75.56
59487;BME280;45298;54.918;73.504;2023-01-01T06:05:01;101203.78;;;-19.52;75.24
59487;BME280;45298;54.918;73.504;2023-01-01T06:07:30;101308.94;;;-18.88;75.13
59487;BME280;45298;54.918;73.504;2023-01-01T06:10:01;101256.75;;;-19.09;75.47
59487;BME280;45298;54.918;73.504;2023-01-01T06:12:30;101308.53;;;-18.82;75.12
59487;BME280;45298;54.918;73.504;2023-01-01T06:14:59;101342.19;;;-18.61;74.87
59487;BME280;45298;54.918;73.504;2023-01-01T06:17:27;101315.22;;;-18.60;75.07
59487;BME280;45298;54.918;73.504;2023-01-01T06:19:57;101286.47;;;-18.73;75.37
59487;BME280;45298;54.918;73.504;2023-01-01T06:22:25;101309.28;;;-18.61;74.78
59487;BME280;45298;54.918;73.504;2023-01-01T06:24:54;101294.78;;;-18.63;74.98
59487;BME280;45298;54.918;73.504;2023-01-01T06:27:23;101304.25;;;-18.61;74.55
59487;BME280;45298;54.918;73.504;2023-01-01T06:29:54;101330.69;;;-18.45;75.10
59487;BME280;45298;54.918;73.504;2023-01-01T06:32:25;101286.81;;;-18.68;74.70
59487;BME280;45298;54.918;73.504;2023-01-01T06:34:53;101314.16;;;-18.52;74.81
59487;BME280;45298;54.918;73.504;2023-01-01T06:37:22;101327.16;;;-18.47;74.80
59487;BME280;45298;54.918;73.504;2023-01-01T06:39:51;101355.06;;;-18.35;74.80
59487;BME280;45298;54.918;73.504;2023-01-01T06:42:20;101299.16;;;-18.61;74.95
59487;BME280;45298;54.918;73.504;2023-01-01T06:44:50;101343.06;;;-18.38;75.17
59487;BME280;45298;54.918;73.504;2023-01-01T06:47:19;101336.28;;;-18.49;74.66
59487;BME280;45298;54.918;73.504;2023-01-01T06:49:48;101327.41;;;-18.44;75.11
59487;BME280;45298;54.918;73.504;2023-01-01T06:52:17;101319.56;;;-18.47;74.65
59487;BME280;45298;54.918;73.504;2023-01-01T06:54:46;101323.34;;;-18.42;75.11
59487;BME280;45298;54.918;73.504;2023-01-01T06:57:14;101331.41;;;-18.36;74.84
59487;BME280;45298;54.918;73.504;2023-01-01T06:59:43;101329.63;;;-18.37;75.04
59487;BME280;45298;54.918;73.504;2023-01-01T07:02:12;101326.63;;;-18.43;74.73
59487;BME280;45298;54.918;73.504;2023-01-01T07:04:42;101337.75;;;-18.41;75.20
59487;BME280;45298;54.918;73.504;2023-01-01T07:07:11;101327.41;;;-18.44;74.72
59487;BME280;45298;54.918;73.504;2023-01-01T07:09:39;101360.88;;;-18.36;74.32
59487;BME280;45298;54.918;73.504;2023-01-01T07:12:08;101343.69;;;-18.41;74.40
59487;BME280;45298;54.918;73.504;2023-01-01T07:14:37;101370.63;;;-18.19;74.34
59487;BME280;45298;54.918;73.504;2023-01-01T07:17:06;101361.84;;;-18.24;74.75
59487;BME280;45298;54.918;73.504;2023-01-01T07:19:35;101299.84;;;-18.51;74.27
59487;BME280;45298;54.918;73.504;2023-01-01T07:22:04;101379.50;;;-18.02;74.31
59487;BME280;45298;54.918;73.504;2023-01-01T07:24:32;101340.16;;;-18.20;74.31
59487;BME280;45298;54.918;73.504;2023-01-01T07:27:01;101252.72;;;-18.61;74.53
59487;BME280;45298;54.918;73.504;2023-01-01T07:29:30;101375.00;;;-17.82;73.67
59487;BME280;45298;54.918;73.504;2023-01-01T07:32:01;101378.97;;;-17.74;74.22
59487;BME280;45298;54.918;73.504;2023-01-01T07:34:31;101377.88;;;-17.66;73.85
59487;BME280;45298;54.918;73.504;2023-01-01T07:37:00;101372.28;;;-17.50;74.02
59487;BME280;45298;54.918;73.504;2023-01-01T07:39:29;101334.13;;;-17.63;73.50
59487;BME280;45298;54.918;73.504;2023-01-01T07:41:58;101380.22;;;-17.45;73.54
59487;BME280;45298;54.918;73.504;2023-01-01T07:44:30;101360.38;;;-17.51;73.55
59487;BME280;45298;54.918;73.504;2023-01-01T07:47:03;101382.00;;;-17.44;73.69
59487;BME280;45298;54.918;73.504;2023-01-01T07:49:32;101338.78;;;-17.57;72.89
59487;BME280;45298;54.918;73.504;2023-01-01T07:52:01;101359.94;;;-17.45;73.00
59487;BME280;45298;54.918;73.504;2023-01-01T07:54:29;101339.66;;;-17.57;72.66
59487;BME280;45298;54.918;73.504;2023-01-01T07:56:58;101387.84;;;-17.33;73.67
59487;BME280;45298;54.918;73.504;2023-01-01T07:59:27;101335.88;;;-17.62;72.66
59487;BME280;45298;54.918;73.504;2023-01-01T08:01:56;101364.78;;;-17.48;73.49
59487;BME280;45298;54.918;73.504;2023-01-01T08:04:25;101347.56;;;-17.64;72.55
59487;BME280;45298;54.918;73.504;2023-01-01T08:06:54;101358.38;;;-17.67;73.17
59487;BME280;45298;54.918;73.504;2023-01-01T08:09:23;101348.16;;;-17.68;72.76
59487;BME280;45298;54.918;73.504;2023-01-01T08:11:52;101372.28;;;-17.61;73.68
59487;BME280;45298;54.918;73.504;2023-01-01T08:14:21;101373.81;;;-17.64;73.36
59487;BME280;45298;54.918;73.504;2023-01-01T08:16:50;101355.50;;;-17.71;73.13
59487;BME280;45298;54.918;73.504;2023-01-01T08:19:18;101377.34;;;-17.61;73.31
59487;BME280;45298;54.918;73.504;2023-01-01T08:21:47;101388.16;;;-17.52;72.45
59487;BME280;45298;54.918;73.504;2023-01-01T08:24:16;101383.19;;;-17.51;72.47
59487;BME280;45298;54.918;73.504;2023-01-01T08:26:48;101346.00;;;-17.74;72.69
59487;BME280;45298;54.918;73.504;2023-01-01T08:29:18;101343.72;;;-17.71;72.51
59487;BME280;45298;54.918;73.504;2023-01-01T08:31:47;101316.81;;;-17.81;72.67
59487;BME280;45298;54.918;73.504;2023-01-01T08:34:16;101377.38;;;-17.38;71.99
59487;BME280;45298;54.918;73.504;2023-01-01T08:36:45;101406.03;;;-17.27;72.05
59487;BME280;45298;54.918;73.504;2023-01-01T08:39:14;101351.56;;;-17.44;72.98
59487;BME280;45298;54.918;73.504;2023-01-01T08:41:43;101347.47;;;-17.42;71.79
59487;BME280;45298;54.918;73.504;2023-01-01T08:44:12;101364.31;;;-17.54;71.29
59487;BME280;45298;54.918;73.504;2023-01-01T08:46:41;101282.69;;;-18.10;72.14
59487;BME280;45298;54.918;73.504;2023-01-01T08:49:10;101361.22;;;-17.74;71.66
59487;BME280;45298;54.918;73.504;2023-01-01T08:51:39;101284.28;;;-18.22;72.34
59487;BME280;45298;54.918;73.504;2023-01-01T08:54:08;101371.81;;;-17.80;72.89
59487;BME280;45298;54.918;73.504;2023-01-01T08:56:37;101405.09;;;-17.63;72.45
59487;BME280;45298;54.918;73.504;2023-01-01T08:59:06;101410.50;;;-17.70;72.61
59487;BME280;45298;54.918;73.504;2023-01-01T09:01:35;101385.91;;;-17.83;72.50
59487;BME280;45298;54.918;73.504;2023-01-01T09:04:04;101377.41;;;-17.96;72.70
59487;BME280;45298;54.918;73.504;2023-01-01T09:06:42;101380.50;;;-18.00;72.23
59487;BME280;45298;54.918;73.504;2023-01-01T09:09:11;101419.38;;;-17.87;72.68
59487;BME280;45298;54.918;73.504;2023-01-01T09:11:52;101403.50;;;-18.09;72.60
59487;BME280;45298;54.918;73.504;2023-01-01T09:14:21;101393.59;;;-18.05;72.72
59487;BME280;45298;54.918;73.504;2023-01-01T09:16:50;101410.69;;;-18.03;72.82
59487;BME280;45298;54.918;73.504;2023-01-01T09:19:19;101376.06;;;-18.14;72.78
59487;BME280;45298;54.918;73.504;2023-01-01T09:21:48;101369.28;;;-18.26;73.02
59487;BME280;45298;54.918;73.504;2023-01-01T09:24:17;101373.59;;;-18.25;73.06
59487;BME280;45298;54.918;73.504;2023-01-01T09:26:48;101370.81;;;-18.28;73.02
59487;BME280;45298;54.918;73.504;2023-01-01T09:29:18;101282.25;;;-18.84;73.14
59487;BME280;45298;54.918;73.504;2023-01-01T09:31:49;101419.56;;;-18.08;73.25
59487;BME280;45298;54.918;73.504;2023-01-01T09:34:17;101364.41;;;-18.34;73.11
59487;BME280;45298;54.918;73.504;2023-01-01T09:36:47;101395.53;;;-18.25;73.08
59487;BME280;45298;54.918;73.504;2023-01-01T09:39:16;101397.91;;;-18.27;73.02
59487;BME280;45298;54.918;73.504;2023-01-01T09:42:01;101373.97;;;-18.42;72.83
59487;BME280;45298;54.918;73.504;2023-01-01T09:47:27;101401.97;;;-18.29;73.21
59487;BME280;45298;54.918;73.504;2023-01-01T09:50:23;101398.16;;;-18.24;73.09
59487;BME280;45298;54.918;73.504;2023-01-01T09:53:00;101406.03;;;-18.31;73.24
59487;BME280;45298;54.918;73.504;2023-01-01T09:55:46;101333.38;;;-18.66;73.04
59487;BME280;45298;54.918;73.504;2023-01-01T09:58:23;101407.53;;;-18.22;73.33
59487;BME280;45298;54.918;73.504;2023-01-01T10:00:55;101425.06;;;-18.14;73.68
59487;BME280;45298;54.918;73.504;2023-01-01T10:03:38;101385.09;;;-18.40;73.18
59487;BME280;45298;54.918;73.504;2023-01-01T10:08:53;101424.47;;;-18.21;73.50
59487;BME280;45298;54.918;73.504;2023-01-01T10:11:58;101415.78;;;-18.25;73.25
59487;BME280;45298;54.918;73.504;2023-01-01T10:14:42;101394.22;;;-18.42;73.24
59487;BME280;45298;54.918;73.504;2023-01-01T10:17:35;101423.66;;;-18.32;73.17
59487;BME280;45298;54.918;73.504;2023-01-01T10:20:22;101403.41;;;-18.55;73.42
59487;BME280;45298;54.918;73.504;2023-01-01T10:22:56;101396.59;;;-18.56;73.38
59487;BME280;45298;54.918;73.504;2023-01-01T10:25:30;101424.59;;;-18.42;73.27
59487;BME280;45298;54.918;73.504;2023-01-01T10:28:18;101402.19;;;-18.60;73.30
59487;BME280;45298;54.918;73.504;2023-01-01T10:30:50;101436.16;;;-18.46;73.24
59487;BME280;45298;54.918;73.504;2023-01-01T10:33:21;101392.66;;;-18.74;73.44
59487;BME280;45298;54.918;73.504;2023-01-01T10:35:53;101418.13;;;-18.61;73.81
59487;BME280;45298;54.918;73.504;2023-01-01T10:38:26;101393.94;;;-18.79;74.03
59487;BME280;45298;54.918;73.504;2023-01-01T10:41:04;101323.06;;;-19.24;73.61
59487;BME280;45298;54.918;73.504;2023-01-01T10:43:40;101385.09;;;-18.85;73.59
59487;BME280;45298;54.918;73.504;2023-01-01T10:46:17;101428.53;;;-18.68;74.26
59487;BME280;45298;54.918;73.504;2023-01-01T10:51:36;101421.69;;;-18.91;73.93
59487;BME280;45298;54.918;73.504;2023-01-01T10:56:58;101430.47;;;-18.98;74.10
59487;BME280;45298;54.918;73.504;2023-01-01T10:59:37;101449.59;;;-18.90;74.31
59487;BME280;45298;54.918;73.504;2023-01-01T11:02:26;101450.69;;;-18.98;74.28
59487;BME280;45298;54.918;73.504;2023-01-01T11:05:18;101493.38;;;-18.91;74.49
59487;BME280;45298;54.918;73.504;2023-01-01T11:07:49;101449.22;;;-19.17;74.54
59487;BME280;45298;54.918;73.504;2023-01-01T11:10:23;101363.78;;;-19.74;74.74
59487;BME280;45298;54.918;73.504;2023-01-01T11:12:56;101459.84;;;-19.21;74.32
59487;BME280;45298;54.918;73.504;2023-01-01T11:15:39;101451.25;;;-19.23;75.00
59487;BME280;45298;54.918;73.504;2023-01-01T11:18:14;101464.25;;;-19.18;75.02
59487;BME280;45298;54.918;73.504;2023-01-01T11:20:56;101454.44;;;-19.25;75.35
59487;BME280;45298;54.918;73.504;2023-01-01T11:28:37;101496.78;;;-19.23;74.88
59487;BME280;45298;54.918;73.504;2023-01-01T11:31:15;101510.16;;;-19.24;75.04
59487;BME280;45298;54.918;73.504;2023-01-01T11:33:53;101488.69;;;-19.39;75.16
59487;BME280;45298;54.918;73.504;2023-01-01T11:36:30;101479.34;;;-19.51;75.45
59487;BME280;45298;54.918;73.504;2023-01-01T11:39:26;101497.03;;;-19.40;75.03
59487;BME280;45298;54.918;73.504;2023-01-01T11:41:55;101474.94;;;-19.53;75.17
59487;BME280;45298;54.918;73.504;2023-01-01T11:44:39;101479.88;;;-19.55;75.00
59487;BME280;45298;54.918;73.504;2023-01-01T11:47:33;101518.53;;;-19.35;75.23
59487;BME280;45298;54.918;73.504;2023-01-01T11:52:48;101522.56;;;-19.48;74.82
59487;BME280;45298;54.918;73.504;2023-01-01T11:55:39;101373.28;;;-20.23;74.51
59487;BME280;45298;54.918;73.504;2023-01-01T12:11:40;101524.44;;;-19.86;75.10
59487;BME280;45298;54.918;73.504;2023-01-01T12:14:41;101540.88;;;-19.92;75.02
59487;BME280;45298;54.918;73.504;2023-01-01T12:17:31;101527.22;;;-20.04;74.69
59487;BME280;45298;54.918;73.504;2023-01-01T12:20:31;101545.75;;;-20.03;74.66
59487;BME280;45298;54.918;73.504;2023-01-01T12:23:01;101535.38;;;-20.17;74.72
59487;BME280;45298;54.918;73.504;2023-01-01T12:25:45;101526.09;;;-20.37;75.42
59487;BME280;45298;54.918;73.504;2023-01-01T12:28:39;101549.81;;;-20.35;74.66
59487;BME280;45298;54.918;73.504;2023-01-01T12:43:03;101575.00;;;-20.75;74.47
59487;BME280;45298;54.918;73.504;2023-01-01T12:48:43;101583.81;;;-20.80;74.45
59487;BME280;45298;54.918;73.504;2023-01-01T12:57:04;101567.94;;;-20.79;74.91
59487;BME280;45298;54.918;73.504;2023-01-01T12:59:39;101557.16;;;-20.87;74.30
59487;BME280;45298;54.918;73.504;2023-01-01T13:02:29;101568.97;;;-20.77;75.00
59487;BME280;45298;54.918;73.504;2023-01-01T13:05:12;101544.28;;;-20.90;74.77
59487;BME280;45298;54.918;73.504;2023-01-01T13:07:48;101578.53;;;-20.73;74.21
59487;BME280;45298;54.918;73.504;2023-01-01T13:10:28;101532.31;;;-20.92;75.06
59487;BME280;45298;54.918;73.504;2023-01-01T13:12:59;101550.00;;;-20.82;75.00
59487;BME280;45298;54.918;73.504;2023-01-01T13:21:05;101565.19;;;-20.72;74.46
59487;BME280;45298;54.918;73.504;2023-01-01T13:40:01;101546.75;;;-21.19;74.22
59487;BME280;45298;54.918;73.504;2023-01-01T13:42:43;101582.19;;;-20.99;75.14
59487;BME280;45298;54.918;73.504;2023-01-01T13:45:25;101569.91;;;-21.04;75.04
59487;BME280;45298;54.918;73.504;2023-01-01T13:48:33;101545.19;;;-21.27;74.59
59487;BME280;45298;54.918;73.504;2023-01-01T14:02:41;101583.44;;;-21.32;75.25
59487;BME280;45298;54.918;73.504;2023-01-01T14:05:31;101454.31;;;-22.14;74.50
59487;BME280;45298;54.918;73.504;2023-01-01T14:08:03;101533.91;;;-21.69;74.76
59487;BME280;45298;54.918;73.504;2023-01-01T14:10:39;101584.28;;;-21.50;75.14
59487;BME280;45298;54.918;73.504;2023-01-01T14:15:44;101545.78;;;-21.77;75.10
59487;BME280;45298;54.918;73.504;2023-01-01T14:18:19;101574.75;;;-21.63;75.46
59487;BME280;45298;54.918;73.504;2023-01-01T14:20:51;101541.66;;;-21.85;74.58
59487;BME280;45298;54.918;73.504;2023-01-01T14:26:01;101545.41;;;-21.91;75.65
59487;BME280;45298;54.918;73.504;2023-01-01T14:28:33;101545.25;;;-21.92;75.30
59487;BME280;45298;54.918;73.504;2023-01-01T14:31:14;101446.69;;;-22.53;75.47
59487;BME280;45298;54.918;73.504;2023-01-01T14:33:44;101531.97;;;-22.00;75.35
59487;BME280;45298;54.918;73.504;2023-01-01T14:36:21;101579.41;;;-21.77;75.12
59487;BME280;45298;54.918;73.504;2023-01-01T14:38:58;101551.19;;;-21.92;75.39
59487;BME280;45298;54.918;73.504;2023-01-01T14:41:32;101545.59;;;-21.98;74.74
59487;BME280;45298;54.918;73.504;2023-01-01T14:46:33;101532.00;;;-22.09;75.11
59487;BME280;45298;54.918;73.504;2023-01-01T14:49:14;101532.75;;;-22.10;75.61
59487;BME280;45298;54.918;73.504;2023-01-01T14:51:47;101554.78;;;-21.98;75.05
59487;BME280;45298;54.918;73.504;2023-01-01T14:54:20;101555.03;;;-21.95;75.37
59487;BME280;45298;54.918;73.504;2023-01-01T14:56:50;101546.22;;;-22.09;74.81
59487;BME280;45298;54.918;73.504;2023-01-01T14:59:28;101532.66;;;-22.20;74.70